sensor_id;sensor_type;location;lat;lon;timestamp;temperature;humidity
67901;DHT22;54700;51.796;10.956;2022-08-05T00:01:14;23.70;54.90
67901;DHT22;54700;51.796;10.956;2022-08-05T00:03:42;23.70;55.00
67901;DHT22;54700;51.796;10.956;2022-08-05T00:06:09;23.60;55.20
67901;DHT22;54700;51.796;10.956;2022-08-05T00:08:36;23.60;55.10
67901;DHT22;54700;51.796;10.956;2022-08-05T00:11:04;23.60;55.10
67901;DHT22;54700;51.796;10.956;2022-08-05T00:13:33;23.50;55.80
67901;DHT22;54700;51.796;10.956;2022-08-05T00:16:01;23.50;55.60
67901;DHT22;54700;51.796;10.956;2022-08-05T00:18:29;23.50;55.80
67901;DHT22;54700;51.796;10.956;2022-08-05T00:20:56;23.40;56.20
67901;DHT22;54700;51.796;10.956;2022-08-05T00:23:23;23.30;56.20
67901;DHT22;54700;51.796;10.956;2022-08-05T00:25:50;23.30;56.50
67901;DHT22;54700;51.796;10.956;2022-08-05T00:28:17;23.30;56.00
67901;DHT22;54700;51.796;10.956;2022-08-05T00:30:44;23.30;56.10
67901;DHT22;54700;51.796;10.956;2022-08-05T00:33:12;23.40;56.00
67901;DHT22;54700;51.796;10.956;2022-08-05T00:35:40;23.40;56.20
67901;DHT22;54700;51.796;10.956;2022-08-05T00:38:07;23.30;56.10
67901;DHT22;54700;51.796;10.956;2022-08-05T00:40:44;23.30;56.00
67901;DHT22;54700;51.796;10.956;2022-08-05T00:43:13;23.30;57.00
67901;DHT22;54700;51.796;10.956;2022-08-05T00:45:39;23.40;55.90
67901;DHT22;54700;51.796;10.956;2022-08-05T00:48:07;23.40;55.70
67901;DHT22;54700;51.796;10.956;2022-08-05T00:50:35;23.40;56.00
67901;DHT22;54700;51.796;10.956;2022-08-05T00:53:03;23.40;55.80
67901;DHT22;54700;51.796;10.956;2022-08-05T00:55:29;23.40;56.10
67901;DHT22;54700;51.796;10.956;2022-08-05T00:57:56;23.30;56.00
67901;DHT22;54700;51.796;10.956;2022-08-05T01:00:22;23.30;56.20
67901;DHT22;54700;51.796;10.956;2022-08-05T01:02:49;23.30;56.10
67901;DHT22;54700;51.796;10.956;2022-08-05T01:05:16;23.30;56.10
67901;DHT22;54700;51.796;10.956;2022-08-05T01:07:43;23.30;57.30
67901;DHT22;54700;51.796;10.956;2022-08-05T01:10:11;23.30;56.60
67901;DHT22;54700;51.796;10.956;2022-08-05T01:12:51;23.30;56.50
67901;DHT22;54700;51.796;10.956;2022-08-05T01:15:23;23.30;57.00
67901;DHT22;54700;51.796;10.956;2022-08-05T01:17:56;23.20;57.00
67901;DHT22;54700;51.796;10.956;2022-08-05T01:20:30;23.20;57.00
67901;DHT22;54700;51.796;10.956;2022-08-05T01:23:09;23.20;57.00
67901;DHT22;54700;51.796;10.956;2022-08-05T01:26:00;23.20;56.80
67901;DHT22;54700;51.796;10.956;2022-08-05T01:28:36;23.30;56.80
67901;DHT22;54700;51.796;10.956;2022-08-05T01:31:09;23.30;56.80
67901;DHT22;54700;51.796;10.956;2022-08-05T01:33:42;23.30;57.30
67901;DHT22;54700;51.796;10.956;2022-08-05T01:36:15;23.30;57.20
67901;DHT22;54700;51.796;10.956;2022-08-05T01:38:44;23.30;57.20
67901;DHT22;54700;51.796;10.956;2022-08-05T01:41:13;23.10;57.90
67901;DHT22;54700;51.796;10.956;2022-08-05T01:43:47;23.00;58.10
67901;DHT22;54700;51.796;10.956;2022-08-05T01:46:15;22.90;58.00
67901;DHT22;54700;51.796;10.956;2022-08-05T01:48:43;22.90;58.50
67901;DHT22;54700;51.796;10.956;2022-08-05T01:51:11;22.90;58.90
67901;DHT22;54700;51.796;10.956;2022-08-05T01:53:41;22.90;59.80
67901;DHT22;54700;51.796;10.956;2022-08-05T01:56:09;22.80;62.20
67901;DHT22;54700;51.796;10.956;2022-08-05T01:58:39;22.70;63.90
67901;DHT22;54700;51.796;10.956;2022-08-05T02:01:09;22.50;64.50
67901;DHT22;54700;51.796;10.956;2022-08-05T02:03:39;22.20;66.00
67901;DHT22;54700;51.796;10.956;2022-08-05T02:06:10;21.90;67.80
67901;DHT22;54700;51.796;10.956;2022-08-05T02:08:37;21.60;69.70
67901;DHT22;54700;51.796;10.956;2022-08-05T02:11:05;21.40;70.70
67901;DHT22;54700;51.796;10.956;2022-08-05T02:13:36;21.30;71.60
67901;DHT22;54700;51.796;10.956;2022-08-05T02:16:10;21.20;71.30
67901;DHT22;54700;51.796;10.956;2022-08-05T02:18:46;21.10;71.90
67901;DHT22;54700;51.796;10.956;2022-08-05T02:21:18;21.10;72.40
67901;DHT22;54700;51.796;10.956;2022-08-05T02:23:51;21.00;72.60
67901;DHT22;54700;51.796;10.956;2022-08-05T02:26:23;21.00;73.10
67901;DHT22;54700;51.796;10.956;2022-08-05T02:28:53;21.00;73.30
67901;DHT22;54700;51.796;10.956;2022-08-05T02:31:26;20.90;73.70
67901;DHT22;54700;51.796;10.956;2022-08-05T02:33:56;20.90;73.40
67901;DHT22;54700;51.796;10.956;2022-08-05T02:36:25;20.90;73.40
67901;DHT22;54700;51.796;10.956;2022-08-05T02:38:54;20.90;74.40
67901;DHT22;54700;51.796;10.956;2022-08-05T02:41:22;20.90;74.10
67901;DHT22;54700;51.796;10.956;2022-08-05T02:43:51;20.90;74.50
67901;DHT22;54700;51.796;10.956;2022-08-05T02:46:20;20.70;75.00
67901;DHT22;54700;51.796;10.956;2022-08-05T02:48:50;20.70;75.70
67901;DHT22;54700;51.796;10.956;2022-08-05T02:51:18;20.60;75.70
67901;DHT22;54700;51.796;10.956;2022-08-05T02:53:45;20.60;75.50
67901;DHT22;54700;51.796;10.956;2022-08-05T02:56:13;20.60;75.00
67901;DHT22;54700;51.796;10.956;2022-08-05T02:58:42;20.70;75.70
67901;DHT22;54700;51.796;10.956;2022-08-05T03:01:16;20.70;75.40
67901;DHT22;54700;51.796;10.956;2022-08-05T03:03:51;20.60;75.90
67901;DHT22;54700;51.796;10.956;2022-08-05T03:06:19;20.60;75.50
67901;DHT22;54700;51.796;10.956;2022-08-05T03:08:47;20.60;75.50
67901;DHT22;54700;51.796;10.956;2022-08-05T03:11:15;20.60;75.90
67901;DHT22;54700;51.796;10.956;2022-08-05T03:13:43;20.60;76.00
67901;DHT22;54700;51.796;10.956;2022-08-05T03:16:09;20.50;75.90
67901;DHT22;54700;51.796;10.956;2022-08-05T03:18:36;20.50;76.00
67901;DHT22;54700;51.796;10.956;2022-08-05T03:21:05;20.50;76.40
67901;DHT22;54700;51.796;10.956;2022-08-05T03:23:32;20.50;76.00
67901;DHT22;54700;51.796;10.956;2022-08-05T03:25:59;20.40;75.90
67901;DHT22;54700;51.796;10.956;2022-08-05T03:28:26;20.40;75.70
67901;DHT22;54700;51.796;10.956;2022-08-05T03:30:55;20.40;75.50
67901;DHT22;54700;51.796;10.956;2022-08-05T03:33:24;20.40;75.70
67901;DHT22;54700;51.796;10.956;2022-08-05T03:35:53;20.40;75.40
67901;DHT22;54700;51.796;10.956;2022-08-05T03:38:22;20.40;75.30
67901;DHT22;54700;51.796;10.956;2022-08-05T03:40:50;20.40;75.30
67901;DHT22;54700;51.796;10.956;2022-08-05T03:43:17;20.50;74.80
67901;DHT22;54700;51.796;10.956;2022-08-05T03:45:45;20.50;74.30
67901;DHT22;54700;51.796;10.956;2022-08-05T03:48:13;20.50;73.70
67901;DHT22;54700;51.796;10.956;2022-08-05T03:50:42;20.50;73.00
67901;DHT22;54700;51.796;10.956;2022-08-05T03:53:18;20.50;72.50
67901;DHT22;54700;51.796;10.956;2022-08-05T03:55:56;20.50;72.00
67901;DHT22;54700;51.796;10.956;2022-08-05T03:58:26;20.50;71.50
67901;DHT22;54700;51.796;10.956;2022-08-05T04:00:58;20.60;71.10
67901;DHT22;54700;51.796;10.956;2022-08-05T04:03:27;20.60;70.90
67901;DHT22;54700;51.796;10.956;2022-08-05T04:05:57;20.60;71.20
67901;DHT22;54700;51.796;10.956;2022-08-05T04:08:26;20.60;71.10
67901;DHT22;54700;51.796;10.956;2022-08-05T04:10:54;20.60;70.90
67901;DHT22;54700;51.796;10.956;2022-08-05T04:13:21;20.60;71.30
67901;DHT22;54700;51.796;10.956;2022-08-05T04:15:49;20.60;72.20
67901;DHT22;54700;51.796;10.956;2022-08-05T04:18:15;20.50;72.60
67901;DHT22;54700;51.796;10.956;2022-08-05T04:20:42;20.40;73.40
67901;DHT22;54700;51.796;10.956;2022-08-05T04:23:09;20.30;74.30
67901;DHT22;54700;51.796;10.956;2022-08-05T04:25:38;20.20;74.40
67901;DHT22;54700;51.796;10.956;2022-08-05T04:28:04;20.10;74.60
67901;DHT22;54700;51.796;10.956;2022-08-05T04:30:31;20.00;75.20
67901;DHT22;54700;51.796;10.956;2022-08-05T04:32:57;19.80;75.60
67901;DHT22;54700;51.796;10.956;2022-08-05T04:35:24;19.70;76.10
67901;DHT22;54700;51.796;10.956;2022-08-05T04:37:51;19.70;76.20
67901;DHT22;54700;51.796;10.956;2022-08-05T04:40:17;19.70;76.90
67901;DHT22;54700;51.796;10.956;2022-08-05T04:42:45;19.70;76.60
67901;DHT22;54700;51.796;10.956;2022-08-05T04:45:12;19.70;77.80
67901;DHT22;54700;51.796;10.956;2022-08-05T04:47:38;19.70;79.30
67901;DHT22;54700;51.796;10.956;2022-08-05T04:50:05;19.60;81.20
67901;DHT22;54700;51.796;10.956;2022-08-05T04:52:33;19.50;82.10
67901;DHT22;54700;51.796;10.956;2022-08-05T04:54:59;19.30;83.60
67901;DHT22;54700;51.796;10.956;2022-08-05T04:57:26;19.20;84.40
67901;DHT22;54700;51.796;10.956;2022-08-05T04:59:54;19.10;86.10
67901;DHT22;54700;51.796;10.956;2022-08-05T05:02:21;19.50;84.50
67901;DHT22;54700;51.796;10.956;2022-08-05T05:04:47;19.60;84.80
67901;DHT22;54700;51.796;10.956;2022-08-05T05:07:14;19.40;86.70
67901;DHT22;54700;51.796;10.956;2022-08-05T05:09:41;19.30;87.70
67901;DHT22;54700;51.796;10.956;2022-08-05T05:12:08;19.30;86.70
67901;DHT22;54700;51.796;10.956;2022-08-05T05:14:34;19.40;86.60
67901;DHT22;54700;51.796;10.956;2022-08-05T05:17:02;19.40;86.00
67901;DHT22;54700;51.796;10.956;2022-08-05T05:19:29;19.40;87.00
67901;DHT22;54700;51.796;10.956;2022-08-05T05:21:56;19.40;86.80
67901;DHT22;54700;51.796;10.956;2022-08-05T05:24:22;19.50;87.60
67901;DHT22;54700;51.796;10.956;2022-08-05T05:26:49;19.50;87.90
67901;DHT22;54700;51.796;10.956;2022-08-05T05:29:16;19.50;89.00
67901;DHT22;54700;51.796;10.956;2022-08-05T05:31:42;19.60;88.40
67901;DHT22;54700;51.796;10.956;2022-08-05T05:34:10;19.70;88.00
67901;DHT22;54700;51.796;10.956;2022-08-05T05:36:37;19.80;87.50
67901;DHT22;54700;51.796;10.956;2022-08-05T05:39:04;19.80;87.10
67901;DHT22;54700;51.796;10.956;2022-08-05T05:41:30;19.90;87.00
67901;DHT22;54700;51.796;10.956;2022-08-05T05:43:57;19.80;86.70
67901;DHT22;54700;51.796;10.956;2022-08-05T05:46:24;19.90;87.20
67901;DHT22;54700;51.796;10.956;2022-08-05T05:48:51;19.80;88.30
67901;DHT22;54700;51.796;10.956;2022-08-05T05:51:19;19.80;88.80
67901;DHT22;54700;51.796;10.956;2022-08-05T05:53:47;19.90;88.50
67901;DHT22;54700;51.796;10.956;2022-08-05T05:56:14;19.90;88.10
67901;DHT22;54700;51.796;10.956;2022-08-05T05:58:41;19.80;88.70
67901;DHT22;54700;51.796;10.956;2022-08-05T06:01:07;19.80;88.90
67901;DHT22;54700;51.796;10.956;2022-08-05T06:03:35;19.80;88.30
67901;DHT22;54700;51.796;10.956;2022-08-05T06:06:01;19.70;88.90
67901;DHT22;54700;51.796;10.956;2022-08-05T06:08:32;19.80;89.00
67901;DHT22;54700;51.796;10.956;2022-08-05T06:10:58;19.90;89.70
67901;DHT22;54700;51.796;10.956;2022-08-05T06:13:25;20.00;88.40
67901;DHT22;54700;51.796;10.956;2022-08-05T06:15:52;20.10;88.10
67901;DHT22;54700;51.796;10.956;2022-08-05T06:18:18;20.20;88.60
67901;DHT22;54700;51.796;10.956;2022-08-05T06:20:45;20.20;88.70
67901;DHT22;54700;51.796;10.956;2022-08-05T06:23:12;20.20;88.40
67901;DHT22;54700;51.796;10.956;2022-08-05T06:25:40;20.20;87.40
67901;DHT22;54700;51.796;10.956;2022-08-05T06:28:07;20.30;87.10
67901;DHT22;54700;51.796;10.956;2022-08-05T06:30:33;20.30;87.60
67901;DHT22;54700;51.796;10.956;2022-08-05T06:33:00;20.30;87.40
67901;DHT22;54700;51.796;10.956;2022-08-05T06:35:27;20.40;87.80
67901;DHT22;54700;51.796;10.956;2022-08-05T06:37:53;20.40;87.40
67901;DHT22;54700;51.796;10.956;2022-08-05T06:40:20;20.30;87.90
67901;DHT22;54700;51.796;10.956;2022-08-05T06:42:49;20.20;87.70
67901;DHT22;54700;51.796;10.956;2022-08-05T06:45:16;20.20;88.50
67901;DHT22;54700;51.796;10.956;2022-08-05T06:47:43;20.10;87.60
67901;DHT22;54700;51.796;10.956;2022-08-05T06:50:09;20.00;86.90
67901;DHT22;54700;51.796;10.956;2022-08-05T06:52:36;20.10;87.90
67901;DHT22;54700;51.796;10.956;2022-08-05T06:55:03;20.10;88.50
67901;DHT22;54700;51.796;10.956;2022-08-05T06:57:30;20.10;88.40
67901;DHT22;54700;51.796;10.956;2022-08-05T06:59:58;20.10;89.40
67901;DHT22;54700;51.796;10.956;2022-08-05T07:02:26;20.10;90.00
67901;DHT22;54700;51.796;10.956;2022-08-05T07:04:53;20.10;89.60
67901;DHT22;54700;51.796;10.956;2022-08-05T07:07:20;20.00;88.10
67901;DHT22;54700;51.796;10.956;2022-08-05T07:09:46;20.00;88.70
67901;DHT22;54700;51.796;10.956;2022-08-05T07:12:13;20.00;89.10
67901;DHT22;54700;51.796;10.956;2022-08-05T07:14:54;20.00;89.70
67901;DHT22;54700;51.796;10.956;2022-08-05T07:17:39;19.90;89.00
67901;DHT22;54700;51.796;10.956;2022-08-05T07:20:06;19.90;88.90
67901;DHT22;54700;51.796;10.956;2022-08-05T07:22:33;19.90;89.00
67901;DHT22;54700;51.796;10.956;2022-08-05T07:25:00;20.00;88.90
67901;DHT22;54700;51.796;10.956;2022-08-05T07:27:28;20.00;88.60
67901;DHT22;54700;51.796;10.956;2022-08-05T07:29:56;20.00;89.30
67901;DHT22;54700;51.796;10.956;2022-08-05T07:32:23;20.00;89.10
67901;DHT22;54700;51.796;10.956;2022-08-05T07:34:51;20.10;89.60
67901;DHT22;54700;51.796;10.956;2022-08-05T07:37:18;20.20;89.40
67901;DHT22;54700;51.796;10.956;2022-08-05T07:39:44;20.20;88.40
67901;DHT22;54700;51.796;10.956;2022-08-05T07:42:11;20.20;88.90
67901;DHT22;54700;51.796;10.956;2022-08-05T07:44:38;20.30;89.40
67901;DHT22;54700;51.796;10.956;2022-08-05T07:47:05;20.50;88.50
67901;DHT22;54700;51.796;10.956;2022-08-05T07:49:31;20.70;87.50
67901;DHT22;54700;51.796;10.956;2022-08-05T07:51:59;20.80;87.30
67901;DHT22;54700;51.796;10.956;2022-08-05T07:54:26;21.00;85.00
67901;DHT22;54700;51.796;10.956;2022-08-05T07:56:53;21.10;82.70
67901;DHT22;54700;51.796;10.956;2022-08-05T07:59:19;21.20;84.10
67901;DHT22;54700;51.796;10.956;2022-08-05T08:01:46;21.20;81.80
67901;DHT22;54700;51.796;10.956;2022-08-05T08:04:13;21.00;82.10
67901;DHT22;54700;51.796;10.956;2022-08-05T08:06:40;20.90;83.30
67901;DHT22;54700;51.796;10.956;2022-08-05T08:09:08;21.00;83.40
67901;DHT22;54700;51.796;10.956;2022-08-05T08:11:34;21.10;82.80
67901;DHT22;54700;51.796;10.956;2022-08-05T08:14:01;21.10;80.80
67901;DHT22;54700;51.796;10.956;2022-08-05T08:16:28;21.10;81.20
67901;DHT22;54700;51.796;10.956;2022-08-05T08:18:55;21.20;81.40
67901;DHT22;54700;51.796;10.956;2022-08-05T08:21:21;21.30;82.50
67901;DHT22;54700;51.796;10.956;2022-08-05T08:23:48;21.50;80.90
67901;DHT22;54700;51.796;10.956;2022-08-05T08:26:16;21.60;79.20
67901;DHT22;54700;51.796;10.956;2022-08-05T08:28:43;21.30;78.00
67901;DHT22;54700;51.796;10.956;2022-08-05T08:31:10;21.20;81.10
67901;DHT22;54700;51.796;10.956;2022-08-05T08:33:37;21.20;81.00
67901;DHT22;54700;51.796;10.956;2022-08-05T08:36:04;21.20;81.30
67901;DHT22;54700;51.796;10.956;2022-08-05T08:38:32;21.30;80.60
67901;DHT22;54700;51.796;10.956;2022-08-05T08:40:58;21.30;79.30
67901;DHT22;54700;51.796;10.956;2022-08-05T08:43:31;21.20;78.70
67901;DHT22;54700;51.796;10.956;2022-08-05T08:45:59;21.10;80.10
67901;DHT22;54700;51.796;10.956;2022-08-05T08:48:28;21.10;80.30
67901;DHT22;54700;51.796;10.956;2022-08-05T08:50:58;21.10;80.90
67901;DHT22;54700;51.796;10.956;2022-08-05T08:53:26;21.30;81.00
67901;DHT22;54700;51.796;10.956;2022-08-05T08:56:00;21.40;80.80
67901;DHT22;54700;51.796;10.956;2022-08-05T08:58:27;21.50;80.50
67901;DHT22;54700;51.796;10.956;2022-08-05T09:00:56;21.60;79.90
67901;DHT22;54700;51.796;10.956;2022-08-05T09:03:23;21.70;79.60
67901;DHT22;54700;51.796;10.956;2022-08-05T09:05:50;21.80;78.80
67901;DHT22;54700;51.796;10.956;2022-08-05T09:08:16;21.80;77.20
67901;DHT22;54700;51.796;10.956;2022-08-05T09:10:43;21.90;77.40
67901;DHT22;54700;51.796;10.956;2022-08-05T09:13:12;22.00;79.30
67901;DHT22;54700;51.796;10.956;2022-08-05T09:15:39;22.20;76.70
67901;DHT22;54700;51.796;10.956;2022-08-05T09:18:08;22.20;77.20
67901;DHT22;54700;51.796;10.956;2022-08-05T09:20:35;22.20;77.90
67901;DHT22;54700;51.796;10.956;2022-08-05T09:23:06;22.30;76.70
67901;DHT22;54700;51.796;10.956;2022-08-05T09:25:38;22.30;77.70
67901;DHT22;54700;51.796;10.956;2022-08-05T09:28:08;22.40;77.30
67901;DHT22;54700;51.796;10.956;2022-08-05T09:30:36;22.50;76.80
67901;DHT22;54700;51.796;10.956;2022-08-05T09:33:03;22.70;75.90
67901;DHT22;54700;51.796;10.956;2022-08-05T09:35:31;22.80;76.30
67901;DHT22;54700;51.796;10.956;2022-08-05T09:37:58;22.80;74.80
67901;DHT22;54700;51.796;10.956;2022-08-05T09:40:30;22.80;74.50
67901;DHT22;54700;51.796;10.956;2022-08-05T09:42:58;22.80;75.40
67901;DHT22;54700;51.796;10.956;2022-08-05T09:45:33;22.80;74.50
67901;DHT22;54700;51.796;10.956;2022-08-05T09:50:51;23.00;74.90
67901;DHT22;54700;51.796;10.956;2022-08-05T09:53:19;23.20;73.40
67901;DHT22;54700;51.796;10.956;2022-08-05T09:55:49;23.20;73.80
67901;DHT22;54700;51.796;10.956;2022-08-05T09:58:17;23.40;74.60
67901;DHT22;54700;51.796;10.956;2022-08-05T10:00:51;23.40;72.50
67901;DHT22;54700;51.796;10.956;2022-08-05T10:03:20;23.40;72.50
67901;DHT22;54700;51.796;10.956;2022-08-05T10:05:59;23.50;73.50
67901;DHT22;54700;51.796;10.956;2022-08-05T10:08:28;23.60;73.30
67901;DHT22;54700;51.796;10.956;2022-08-05T10:10:55;23.70;72.80
67901;DHT22;54700;51.796;10.956;2022-08-05T10:13:25;23.90;72.80
67901;DHT22;54700;51.796;10.956;2022-08-05T10:15:54;24.00;72.40
67901;DHT22;54700;51.796;10.956;2022-08-05T10:18:22;24.00;71.20
67901;DHT22;54700;51.796;10.956;2022-08-05T10:20:52;24.00;71.20
67901;DHT22;54700;51.796;10.956;2022-08-05T10:23:22;24.00;71.20
67901;DHT22;54700;51.796;10.956;2022-08-05T10:25:50;23.90;71.20
67901;DHT22;54700;51.796;10.956;2022-08-05T10:28:17;23.90;71.30
67901;DHT22;54700;51.796;10.956;2022-08-05T10:30:44;24.00;71.80
67901;DHT22;54700;51.796;10.956;2022-08-05T10:33:11;24.10;71.00
67901;DHT22;54700;51.796;10.956;2022-08-05T10:35:38;24.10;70.20
67901;DHT22;54700;51.796;10.956;2022-08-05T10:38:05;24.00;70.60
67901;DHT22;54700;51.796;10.956;2022-08-05T10:40:35;24.00;70.80
67901;DHT22;54700;51.796;10.956;2022-08-05T10:43:12;24.00;70.80
67901;DHT22;54700;51.796;10.956;2022-08-05T10:45:54;24.10;70.80
67901;DHT22;54700;51.796;10.956;2022-08-05T10:48:32;24.10;69.90
67901;DHT22;54700;51.796;10.956;2022-08-05T10:51:02;24.10;69.90
67901;DHT22;54700;51.796;10.956;2022-08-05T10:53:40;24.20;70.00
67901;DHT22;54700;51.796;10.956;2022-08-05T10:56:12;24.30;69.10
67901;DHT22;54700;51.796;10.956;2022-08-05T10:58:46;24.40;68.90
67901;DHT22;54700;51.796;10.956;2022-08-05T11:01:15;24.50;68.70
67901;DHT22;54700;51.796;10.956;2022-08-05T11:06:25;25.00;67.50
67901;DHT22;54700;51.796;10.956;2022-08-05T11:09:11;25.10;65.40
67901;DHT22;54700;51.796;10.956;2022-08-05T11:11:46;25.20;66.00
67901;DHT22;54700;51.796;10.956;2022-08-05T11:14:21;25.20;65.10
67901;DHT22;54700;51.796;10.956;2022-08-05T11:19:54;25.10;65.80
67901;DHT22;54700;51.796;10.956;2022-08-05T11:22:39;24.80;66.30
67901;DHT22;54700;51.796;10.956;2022-08-05T11:33:58;24.40;68.10
67901;DHT22;54700;51.796;10.956;2022-08-05T11:36:43;24.50;67.60
67901;DHT22;54700;51.796;10.956;2022-08-05T11:39:16;24.50;67.30
67901;DHT22;54700;51.796;10.956;2022-08-05T11:41:57;24.30;67.60
67901;DHT22;54700;51.796;10.956;2022-08-05T11:44:25;24.20;68.20
67901;DHT22;54700;51.796;10.956;2022-08-05T11:47:04;24.10;68.70
67901;DHT22;54700;51.796;10.956;2022-08-05T11:49:32;24.20;68.30
67901;DHT22;54700;51.796;10.956;2022-08-05T11:51:59;24.20;69.10
67901;DHT22;54700;51.796;10.956;2022-08-05T11:54:26;24.30;68.30
67901;DHT22;54700;51.796;10.956;2022-08-05T11:56:57;24.40;68.20
67901;DHT22;54700;51.796;10.956;2022-08-05T11:59:25;24.60;67.50
67901;DHT22;54700;51.796;10.956;2022-08-05T12:01:53;24.70;66.70
67901;DHT22;54700;51.796;10.956;2022-08-05T12:04:23;24.50;67.10
67901;DHT22;54700;51.796;10.956;2022-08-05T12:06:51;24.60;67.30
67901;DHT22;54700;51.796;10.956;2022-08-05T12:09:20;24.50;67.10
67901;DHT22;54700;51.796;10.956;2022-08-05T12:11:51;24.40;66.90
67901;DHT22;54700;51.796;10.956;2022-08-05T12:14:18;24.30;67.20
67901;DHT22;54700;51.796;10.956;2022-08-05T12:16:46;24.30;67.70
67901;DHT22;54700;51.796;10.956;2022-08-05T12:19:13;24.40;67.70
67901;DHT22;54700;51.796;10.956;2022-08-05T12:21:43;24.40;66.90
67901;DHT22;54700;51.796;10.956;2022-08-05T12:24:13;24.40;67.10
67901;DHT22;54700;51.796;10.956;2022-08-05T12:26:42;24.20;67.30
67901;DHT22;54700;51.796;10.956;2022-08-05T12:29:12;24.10;67.10
67901;DHT22;54700;51.796;10.956;2022-08-05T12:31:43;24.00;67.40
67901;DHT22;54700;51.796;10.956;2022-08-05T12:34:11;24.00;67.80
67901;DHT22;54700;51.796;10.956;2022-08-05T12:36:39;24.00;67.50
67901;DHT22;54700;51.796;10.956;2022-08-05T12:39:08;23.80;67.70
67901;DHT22;54700;51.796;10.956;2022-08-05T12:41:36;23.70;68.30
67901;DHT22;54700;51.796;10.956;2022-08-05T12:44:05;23.70;68.10
67901;DHT22;54700;51.796;10.956;2022-08-05T12:46:34;23.50;68.30
67901;DHT22;54700;51.796;10.956;2022-08-05T12:49:04;23.30;68.80
67901;DHT22;54700;51.796;10.956;2022-08-05T12:51:42;23.00;69.20
67901;DHT22;54700;51.796;10.956;2022-08-05T12:54:16;22.60;70.20
67901;DHT22;54700;51.796;10.956;2022-08-05T12:56:49;22.40;71.00
67901;DHT22;54700;51.796;10.956;2022-08-05T12:59:17;21.90;71.90
67901;DHT22;54700;51.796;10.956;2022-08-05T13:01:52;21.60;72.90
67901;DHT22;54700;51.796;10.956;2022-08-05T13:04:20;21.40;73.20
67901;DHT22;54700;51.796;10.956;2022-08-05T13:06:47;21.10;73.90
67901;DHT22;54700;51.796;10.956;2022-08-05T13:09:15;20.80;76.50
67901;DHT22;54700;51.796;10.956;2022-08-05T13:11:43;20.60;79.20
67901;DHT22;54700;51.796;10.956;2022-08-05T13:14:20;20.30;79.90
67901;DHT22;54700;51.796;10.956;2022-08-05T13:16:49;20.10;81.80
67901;DHT22;54700;51.796;10.956;2022-08-05T13:19:20;19.90;80.80
67901;DHT22;54700;51.796;10.956;2022-08-05T13:21:50;19.80;81.60
67901;DHT22;54700;51.796;10.956;2022-08-05T13:24:19;19.50;81.40
67901;DHT22;54700;51.796;10.956;2022-08-05T13:26:48;19.40;83.80
67901;DHT22;54700;51.796;10.956;2022-08-05T13:29:15;19.40;82.10
67901;DHT22;54700;51.796;10.956;2022-08-05T13:31:44;19.30;82.60
67901;DHT22;54700;51.796;10.956;2022-08-05T13:34:12;19.30;83.10
67901;DHT22;54700;51.796;10.956;2022-08-05T13:36:38;19.30;82.10
67901;DHT22;54700;51.796;10.956;2022-08-05T13:39:06;19.20;82.30
67901;DHT22;54700;51.796;10.956;2022-08-05T13:41:34;19.20;82.30
67901;DHT22;54700;51.796;10.956;2022-08-05T13:44:01;19.10;81.50
67901;DHT22;54700;51.796;10.956;2022-08-05T13:46:28;19.00;81.80
67901;DHT22;54700;51.796;10.956;2022-08-05T13:48:55;18.90;80.80
67901;DHT22;54700;51.796;10.956;2022-08-05T13:51:26;18.70;80.80
67901;DHT22;54700;51.796;10.956;2022-08-05T13:53:54;18.60;81.30
67901;DHT22;54700;51.796;10.956;2022-08-05T13:56:21;18.50;80.00
67901;DHT22;54700;51.796;10.956;2022-08-05T13:58:52;18.40;80.40
67901;DHT22;54700;51.796;10.956;2022-08-05T14:01:19;18.30;80.60
67901;DHT22;54700;51.796;10.956;2022-08-05T14:03:47;18.10;79.80
67901;DHT22;54700;51.796;10.956;2022-08-05T14:06:35;18.10;79.50
67901;DHT22;54700;51.796;10.956;2022-08-05T14:09:01;18.10;78.70
67901;DHT22;54700;51.796;10.956;2022-08-05T14:11:28;18.20;78.70
67901;DHT22;54700;51.796;10.956;2022-08-05T14:13:56;18.40;77.40
67901;DHT22;54700;51.796;10.956;2022-08-05T14:16:23;18.60;76.30
67901;DHT22;54700;51.796;10.956;2022-08-05T14:18:50;18.80;75.60
67901;DHT22;54700;51.796;10.956;2022-08-05T14:21:17;18.80;74.50
67901;DHT22;54700;51.796;10.956;2022-08-05T14:23:44;18.80;74.50
67901;DHT22;54700;51.796;10.956;2022-08-05T14:26:10;18.80;74.80
67901;DHT22;54700;51.796;10.956;2022-08-05T14:28:37;18.80;74.70
67901;DHT22;54700;51.796;10.956;2022-08-05T14:31:06;18.80;75.10
67901;DHT22;54700;51.796;10.956;2022-08-05T14:33:33;18.80;72.30
67901;DHT22;54700;51.796;10.956;2022-08-05T14:36:00;18.90;72.20
67901;DHT22;54700;51.796;10.956;2022-08-05T14:38:27;19.00;72.70
67901;DHT22;54700;51.796;10.956;2022-08-05T14:40:54;19.10;71.60
67901;DHT22;54700;51.796;10.956;2022-08-05T14:43:21;19.10;70.70
67901;DHT22;54700;51.796;10.956;2022-08-05T14:45:49;19.10;71.50
67901;DHT22;54700;51.796;10.956;2022-08-05T14:48:17;19.10;71.50
67901;DHT22;54700;51.796;10.956;2022-08-05T14:50:44;19.10;71.00
67901;DHT22;54700;51.796;10.956;2022-08-05T14:53:11;19.00;70.50
67901;DHT22;54700;51.796;10.956;2022-08-05T14:55:38;18.90;70.40
67901;DHT22;54700;51.796;10.956;2022-08-05T14:58:04;18.90;70.90
67901;DHT22;54700;51.796;10.956;2022-08-05T15:00:31;18.80;71.00
67901;DHT22;54700;51.796;10.956;2022-08-05T15:02:58;18.70;71.10
67901;DHT22;54700;51.796;10.956;2022-08-05T15:05:26;18.70;70.90
67901;DHT22;54700;51.796;10.956;2022-08-05T15:07:52;18.70;71.90
67901;DHT22;54700;51.796;10.956;2022-08-05T15:10:19;18.70;71.50
67901;DHT22;54700;51.796;10.956;2022-08-05T15:12:46;18.70;71.50
67901;DHT22;54700;51.796;10.956;2022-08-05T15:15:13;18.70;71.60
67901;DHT22;54700;51.796;10.956;2022-08-05T15:17:39;18.60;71.70
67901;DHT22;54700;51.796;10.956;2022-08-05T15:20:07;18.50;72.40
67901;DHT22;54700;51.796;10.956;2022-08-05T15:22:36;18.60;73.00
67901;DHT22;54700;51.796;10.956;2022-08-05T15:25:03;18.60;72.90
67901;DHT22;54700;51.796;10.956;2022-08-05T15:27:31;18.60;72.40
67901;DHT22;54700;51.796;10.956;2022-08-05T15:29:58;18.70;72.60
67901;DHT22;54700;51.796;10.956;2022-08-05T15:32:25;18.80;72.80
67901;DHT22;54700;51.796;10.956;2022-08-05T15:34:52;18.90;71.80
67901;DHT22;54700;51.796;10.956;2022-08-05T15:37:18;19.00;71.30
67901;DHT22;54700;51.796;10.956;2022-08-05T15:39:46;19.00;71.30
67901;DHT22;54700;51.796;10.956;2022-08-05T15:42:14;19.00;71.80